Aérodrome :
LOGIN :

S'inscrire | Disclaimer

   EN    FR    IT 

 










Légende :    VFR   VFR Marginal   IFR   IFR Intensif   IFR Très Intensif
Visi : 
Plafond : 
>= 8 km
>= 3000ft
5 à 8 km
1000 à 3000 ft
1500m à 5 km
500 à 1000 ft
800 à 1500m
200 à 500 ft
< 800m
< 200 ft
Symboles :   Orages  Brouillard  Fortes neiges  Fortes précipitations  Vent > 20 kt
SIGMETs :   Divers  Orages  Givrage  Turbulence  Onde Orograph.  Cendres Volcan.







- Altitude de l'aérodrome : 39 ft


ETNH - Hohn AB

DERNIER METAR :
  • 281120Z 09013KT 9999 BKN140 BKN220 21/12 Q1001 BLU BLU

METARs EXPIRÉS :
  • 281026Z 10015KT 9999 BKN100 BKN220 21/11 Q1002 BLU BLU
  • 280920Z 09016KT 9999 FEW100 SCT130 BKN210 20/12 Q1002 BLU+BLU+

TAF TAF ETNH
Valide du 28 à 11h jusqu'au 28 à 20h UTC


281000Z 2811/2820 07015G25KT 9999 NSW SCT040 BKN080
TEMPO 2811/2817 08020G30KT 9999 NSW FEW040 SCT120 BKN250
TEMPO 2817/2820 09020G30KT 4000 RA SCT012 BKN030 BY ETGL
Pas de NOTAMs connus pour ce terrain.
1 SIGMET publié pour la FIR Bremen (EDWW) :
 
Orages noyés dans la masse avec grêle
EDWW SIGMET 1 VALID 281200/281330 EDZH
EDWW BREMEN FIR EMBD TSGR OBS APRX 20NM WID LINE BTN N5208 E01218 - N5132 E01313 TOP FL400 MOV N NC=



MET'MAP, la Météo Aéronautique d'un coup d'oeil ! - Copyright ORBIFLY Décembre 2007 - Disclaimer

ORBIFLY MET'MAP TEAM :

Programmation & Développement : Alexandra Zaïnal
Conception & Développement : Baudouin d'Aumeries
Co-Programmation & Développement : Marc-Olivier Méhu
Soutien technique & logistique : Manuel Goepfert

Contact : metmap@orbifly.com




SOURCES & CREDITS :

   NOAA